sensor_id;sensor_type;location;lat;lon;timestamp;pressure;altitude;pressure_sealevel;temperature;humidity
37304;BME280;23188;51.188;16.374;2023-02-14T00:01:43;102275.38;;;6.93;96.40
37304;BME280;23188;51.188;16.374;2023-02-14T00:05:45;102274.05;;;7.01;96.72
37304;BME280;23188;51.188;16.374;2023-02-14T00:09:47;102271.71;;;7.03;96.59
37304;BME280;23188;51.188;16.374;2023-02-14T00:13:49;102275.02;;;7.14;95.87
37304;BME280;23188;51.188;16.374;2023-02-14T00:18:10;102269.15;;;7.15;95.17
37304;BME280;23188;51.188;16.374;2023-02-14T00:22:12;102278.72;;;7.14;94.54
37304;BME280;23188;51.188;16.374;2023-02-14T00:26:14;102288.85;;;7.02;94.38
37304;BME280;23188;51.188;16.374;2023-02-14T00:30:16;102290.07;;;6.97;94.60
37304;BME280;23188;51.188;16.374;2023-02-14T00:34:19;102289.27;;;6.95;93.88
37304;BME280;23188;51.188;16.374;2023-02-14T00:38:20;102293.36;;;6.89;93.31
37304;BME280;23188;51.188;16.374;2023-02-14T00:42:22;102294.45;;;6.82;93.29
37304;BME280;23188;51.188;16.374;2023-02-14T00:46:25;102292.42;;;6.75;93.79
37304;BME280;23188;51.188;16.374;2023-02-14T00:50:27;102295.84;;;6.78;95.46
37304;BME280;23188;51.188;16.374;2023-02-14T00:54:29;102293.85;;;6.74;95.58
37304;BME280;23188;51.188;16.374;2023-02-14T00:58:34;102293.22;;;6.61;98.11
37304;BME280;23188;51.188;16.374;2023-02-14T01:02:36;102287.65;;;6.42;99.94
37304;BME280;23188;51.188;16.374;2023-02-14T01:06:38;102294.89;;;6.31;100.00
37304;BME280;23188;51.188;16.374;2023-02-14T01:10:40;102288.94;;;6.29;99.12
37304;BME280;23188;51.188;16.374;2023-02-14T01:14:43;102287.93;;;6.22;97.32
37304;BME280;23188;51.188;16.374;2023-02-14T01:18:45;102288.59;;;6.30;96.84
37304;BME280;23188;51.188;16.374;2023-02-14T01:22:47;102284.20;;;6.34;94.89
37304;BME280;23188;51.188;16.374;2023-02-14T01:26:49;102280.58;;;6.32;94.69
37304;BME280;23188;51.188;16.374;2023-02-14T01:30:51;102279.47;;;6.34;95.22
37304;BME280;23188;51.188;16.374;2023-02-14T01:34:53;102273.75;;;6.31;95.12
37304;BME280;23188;51.188;16.374;2023-02-14T01:38:56;102276.58;;;6.24;94.74
37304;BME280;23188;51.188;16.374;2023-02-14T01:42:59;102276.12;;;6.22;95.10
37304;BME280;23188;51.188;16.374;2023-02-14T01:47:04;102273.30;;;6.28;94.82
37304;BME280;23188;51.188;16.374;2023-02-14T01:51:08;102273.64;;;6.34;94.31
37304;BME280;23188;51.188;16.374;2023-02-14T01:55:14;102272.86;;;6.31;94.28
37304;BME280;23188;51.188;16.374;2023-02-14T01:59:20;102266.89;;;6.30;94.24
37304;BME280;23188;51.188;16.374;2023-02-14T02:03:34;102268.59;;;6.32;93.62
37304;BME280;23188;51.188;16.374;2023-02-14T02:07:38;102264.95;;;6.36;93.62
37304;BME280;23188;51.188;16.374;2023-02-14T02:11:41;102264.07;;;6.36;93.20
37304;BME280;23188;51.188;16.374;2023-02-14T02:16:02;102265.23;;;6.38;93.26
37304;BME280;23188;51.188;16.374;2023-02-14T02:24:31;102249.77;;;6.37;93.67
37304;BME280;23188;51.188;16.374;2023-02-14T02:33:20;102242.42;;;6.35;93.09
37304;BME280;23188;51.188;16.374;2023-02-14T02:46:24;102243.27;;;6.41;92.42
37304;BME280;23188;51.188;16.374;2023-02-14T02:50:53;102239.10;;;6.45;92.29
37304;BME280;23188;51.188;16.374;2023-02-14T02:55:36;102239.08;;;6.40;91.97
37304;BME280;23188;51.188;16.374;2023-02-14T03:00:01;102243.36;;;6.28;91.46
37304;BME280;23188;51.188;16.374;2023-02-14T03:04:06;102236.66;;;6.27;92.93
37304;BME280;23188;51.188;16.374;2023-02-14T03:08:29;102230.36;;;6.26;92.79
37304;BME280;23188;51.188;16.374;2023-02-14T03:16:51;102232.64;;;6.21;92.28
37304;BME280;23188;51.188;16.374;2023-02-14T03:20:59;102238.34;;;6.13;91.99
37304;BME280;23188;51.188;16.374;2023-02-14T03:29:55;102238.85;;;6.03;92.92
37304;BME280;23188;51.188;16.374;2023-02-14T03:34:09;102235.98;;;5.92;93.65
37304;BME280;23188;51.188;16.374;2023-02-14T03:38:20;102231.91;;;5.87;94.36
37304;BME280;23188;51.188;16.374;2023-02-14T03:43:04;102231.48;;;5.95;93.80
37304;BME280;23188;51.188;16.374;2023-02-14T03:47:12;102236.91;;;6.03;91.02
37304;BME280;23188;51.188;16.374;2023-02-14T03:51:16;102234.13;;;6.08;90.73
37304;BME280;23188;51.188;16.374;2023-02-14T03:55:26;102239.41;;;6.07;90.17
37304;BME280;23188;51.188;16.374;2023-02-14T03:59:31;102242.51;;;6.10;89.50
37304;BME280;23188;51.188;16.374;2023-02-14T04:03:33;102245.79;;;6.12;88.93
37304;BME280;23188;51.188;16.374;2023-02-14T04:07:45;102242.08;;;6.07;88.12
37304;BME280;23188;51.188;16.374;2023-02-14T04:11:48;102247.55;;;6.00;87.75
37304;BME280;23188;51.188;16.374;2023-02-14T04:15:51;102249.54;;;5.92;87.97
37304;BME280;23188;51.188;16.374;2023-02-14T04:19:53;102248.21;;;5.84;87.41
37304;BME280;23188;51.188;16.374;2023-02-14T04:23:55;102253.30;;;5.90;87.92
37304;BME280;23188;51.188;16.374;2023-02-14T04:27:58;102254.21;;;6.01;88.19
37304;BME280;23188;51.188;16.374;2023-02-14T04:32:00;102246.86;;;6.06;87.83
37304;BME280;23188;51.188;16.374;2023-02-14T04:36:03;102242.07;;;6.07;86.80
37304;BME280;23188;51.188;16.374;2023-02-14T04:40:09;102243.10;;;6.01;85.85
37304;BME280;23188;51.188;16.374;2023-02-14T04:44:13;102242.98;;;5.99;87.37
37304;BME280;23188;51.188;16.374;2023-02-14T04:48:16;102246.21;;;5.91;86.79
37304;BME280;23188;51.188;16.374;2023-02-14T04:52:21;102250.46;;;5.79;84.91
37304;BME280;23188;51.188;16.374;2023-02-14T04:56:25;102253.92;;;5.93;85.90
37304;BME280;23188;51.188;16.374;2023-02-14T05:00:28;102249.95;;;6.03;86.54
37304;BME280;23188;51.188;16.374;2023-02-14T05:04:30;102248.06;;;6.07;86.24
37304;BME280;23188;51.188;16.374;2023-02-14T05:08:32;102253.63;;;5.97;84.10
37304;BME280;23188;51.188;16.374;2023-02-14T05:12:35;102255.50;;;5.99;84.57
37304;BME280;23188;51.188;16.374;2023-02-14T05:16:37;102257.13;;;5.92;86.16
37304;BME280;23188;51.188;16.374;2023-02-14T05:20:39;102261.20;;;5.91;85.75
37304;BME280;23188;51.188;16.374;2023-02-14T05:24:41;102262.65;;;5.90;84.84
37304;BME280;23188;51.188;16.374;2023-02-14T05:28:44;102258.41;;;5.96;84.25
37304;BME280;23188;51.188;16.374;2023-02-14T05:32:46;102262.90;;;5.93;84.88
37304;BME280;23188;51.188;16.374;2023-02-14T05:41:15;102254.34;;;5.85;86.92
37304;BME280;23188;51.188;16.374;2023-02-14T05:45:17;102253.52;;;5.83;86.68
37304;BME280;23188;51.188;16.374;2023-02-14T05:49:20;102256.91;;;5.88;87.96
37304;BME280;23188;51.188;16.374;2023-02-14T05:53:22;102258.02;;;5.92;88.30
37304;BME280;23188;51.188;16.374;2023-02-14T05:57:25;102260.43;;;5.99;88.35
37304;BME280;23188;51.188;16.374;2023-02-14T06:01:27;102265.19;;;5.93;87.53
37304;BME280;23188;51.188;16.374;2023-02-14T06:05:31;102267.05;;;5.84;87.14
37304;BME280;23188;51.188;16.374;2023-02-14T06:09:34;102266.69;;;5.84;87.28
37304;BME280;23188;51.188;16.374;2023-02-14T06:13:36;102271.37;;;5.80;88.10
37304;BME280;23188;51.188;16.374;2023-02-14T06:17:41;102275.17;;;5.77;87.19
37304;BME280;23188;51.188;16.374;2023-02-14T06:21:44;102272.09;;;5.80;86.51
37304;BME280;23188;51.188;16.374;2023-02-14T06:25:46;102279.15;;;5.85;86.76
37304;BME280;23188;51.188;16.374;2023-02-14T06:29:49;102285.55;;;5.90;86.87
37304;BME280;23188;51.188;16.374;2023-02-14T06:33:53;102288.36;;;5.90;86.58
37304;BME280;23188;51.188;16.374;2023-02-14T06:37:56;102287.58;;;5.92;86.64
37304;BME280;23188;51.188;16.374;2023-02-14T06:41:58;102284.23;;;5.93;85.49
37304;BME280;23188;51.188;16.374;2023-02-14T06:46:01;102281.63;;;5.91;86.38
37304;BME280;23188;51.188;16.374;2023-02-14T06:50:05;102291.43;;;6.00;87.52
37304;BME280;23188;51.188;16.374;2023-02-14T06:54:08;102287.17;;;6.01;87.01
37304;BME280;23188;51.188;16.374;2023-02-14T06:58:11;102286.30;;;6.00;86.57
37304;BME280;23188;51.188;16.374;2023-02-14T07:02:13;102285.02;;;5.96;88.10
37304;BME280;23188;51.188;16.374;2023-02-14T07:06:16;102290.72;;;5.99;88.27
37304;BME280;23188;51.188;16.374;2023-02-14T07:10:18;102286.33;;;5.99;85.67
37304;BME280;23188;51.188;16.374;2023-02-14T07:14:20;102287.61;;;6.03;87.02
37304;BME280;23188;51.188;16.374;2023-02-14T07:18:23;102291.39;;;6.00;87.64
37304;BME280;23188;51.188;16.374;2023-02-14T07:22:25;102290.29;;;6.08;87.08
37304;BME280;23188;51.188;16.374;2023-02-14T07:26:28;102300.52;;;6.14;87.91
37304;BME280;23188;51.188;16.374;2023-02-14T07:30:34;102305.42;;;6.21;88.11
37304;BME280;23188;51.188;16.374;2023-02-14T07:34:36;102306.39;;;6.29;87.48
37304;BME280;23188;51.188;16.374;2023-02-14T07:38:39;102309.06;;;6.34;87.14
37304;BME280;23188;51.188;16.374;2023-02-14T07:42:42;102317.03;;;6.33;89.05
37304;BME280;23188;51.188;16.374;2023-02-14T07:46:45;102313.94;;;6.36;89.18
37304;BME280;23188;51.188;16.374;2023-02-14T07:50:48;102314.11;;;6.42;88.67
37304;BME280;23188;51.188;16.374;2023-02-14T07:54:50;102316.73;;;6.48;88.67
37304;BME280;23188;51.188;16.374;2023-02-14T07:58:54;102313.95;;;6.47;88.66
37304;BME280;23188;51.188;16.374;2023-02-14T08:02:57;102313.80;;;6.46;87.81
37304;BME280;23188;51.188;16.374;2023-02-14T08:06:59;102310.89;;;6.49;86.62
37304;BME280;23188;51.188;16.374;2023-02-14T08:11:02;102312.59;;;6.51;87.75
37304;BME280;23188;51.188;16.374;2023-02-14T08:15:05;102310.95;;;6.52;88.93
37304;BME280;23188;51.188;16.374;2023-02-14T08:19:27;102308.16;;;6.58;88.90
37304;BME280;23188;51.188;16.374;2023-02-14T08:23:29;102309.22;;;6.62;88.45
37304;BME280;23188;51.188;16.374;2023-02-14T08:27:31;102307.23;;;6.59;88.22
37304;BME280;23188;51.188;16.374;2023-02-14T08:31:34;102304.66;;;6.56;87.79
37304;BME280;23188;51.188;16.374;2023-02-14T08:35:38;102311.95;;;6.60;86.93
37304;BME280;23188;51.188;16.374;2023-02-14T08:39:40;102308.77;;;6.60;86.67
37304;BME280;23188;51.188;16.374;2023-02-14T08:43:43;102311.93;;;6.66;86.65
37304;BME280;23188;51.188;16.374;2023-02-14T08:47:46;102312.58;;;6.68;85.53
37304;BME280;23188;51.188;16.374;2023-02-14T08:51:49;102315.91;;;6.68;83.96
37304;BME280;23188;51.188;16.374;2023-02-14T08:55:51;102314.16;;;6.67;82.79
37304;BME280;23188;51.188;16.374;2023-02-14T08:59:54;102311.98;;;6.75;84.60
37304;BME280;23188;51.188;16.374;2023-02-14T09:03:56;102312.33;;;6.81;85.41
37304;BME280;23188;51.188;16.374;2023-02-14T09:08:01;102320.88;;;6.89;85.55
37304;BME280;23188;51.188;16.374;2023-02-14T09:12:05;102322.56;;;6.91;85.40
37304;BME280;23188;51.188;16.374;2023-02-14T09:16:09;102323.18;;;6.94;83.58
37304;BME280;23188;51.188;16.374;2023-02-14T09:20:14;102327.86;;;7.01;84.00
37304;BME280;23188;51.188;16.374;2023-02-14T09:24:16;102330.39;;;7.00;83.78
37304;BME280;23188;51.188;16.374;2023-02-14T09:28:19;102329.64;;;7.01;83.34
37304;BME280;23188;51.188;16.374;2023-02-14T09:32:21;102332.66;;;7.06;82.92
37304;BME280;23188;51.188;16.374;2023-02-14T09:36:24;102335.42;;;7.07;82.72
37304;BME280;23188;51.188;16.374;2023-02-14T09:40:45;102337.80;;;7.10;82.73
37304;BME280;23188;51.188;16.374;2023-02-14T09:44:51;102338.46;;;7.12;81.13
37304;BME280;23188;51.188;16.374;2023-02-14T09:48:57;102337.42;;;7.16;81.24
37304;BME280;23188;51.188;16.374;2023-02-14T09:57:27;102344.23;;;7.28;80.74
37304;BME280;23188;51.188;16.374;2023-02-14T10:01:50;102346.04;;;7.32;81.00
37304;BME280;23188;51.188;16.374;2023-02-14T10:06:12;102343.58;;;7.37;81.36
37304;BME280;23188;51.188;16.374;2023-02-14T10:10:40;102342.49;;;7.43;81.27
37304;BME280;23188;51.188;16.374;2023-02-14T10:14:43;102338.77;;;7.38;79.98
37304;BME280;23188;51.188;16.374;2023-02-14T10:23:10;102327.02;;;7.46;80.11
37304;BME280;23188;51.188;16.374;2023-02-14T10:27:38;102326.69;;;7.45;81.26
37304;BME280;23188;51.188;16.374;2023-02-14T10:31:50;102324.13;;;7.38;80.72
37304;BME280;23188;51.188;16.374;2023-02-14T10:36:03;102326.96;;;7.38;80.22
37304;BME280;23188;51.188;16.374;2023-02-14T10:49:24;102319.05;;;7.52;78.80
37304;BME280;23188;51.188;16.374;2023-02-14T10:53:51;102322.23;;;7.52;78.00
37304;BME280;23188;51.188;16.374;2023-02-14T10:58:01;102319.15;;;7.54;77.44
37304;BME280;23188;51.188;16.374;2023-02-14T11:02:05;102314.58;;;7.63;77.97
37304;BME280;23188;51.188;16.374;2023-02-14T11:06:10;102307.19;;;7.67;77.83
37304;BME280;23188;51.188;16.374;2023-02-14T11:10:13;102299.42;;;7.72;78.83
37304;BME280;23188;51.188;16.374;2023-02-14T11:18:29;102297.20;;;7.75;76.76
37304;BME280;23188;51.188;16.374;2023-02-14T11:22:36;102284.80;;;7.80;76.49
37304;BME280;23188;51.188;16.374;2023-02-14T11:26:44;102287.75;;;7.77;75.83
37304;BME280;23188;51.188;16.374;2023-02-14T11:30:49;102280.20;;;7.85;76.96
37304;BME280;23188;51.188;16.374;2023-02-14T11:34:53;102272.77;;;7.95;75.88
37304;BME280;23188;51.188;16.374;2023-02-14T11:39:16;102275.07;;;8.08;74.64
37304;BME280;23188;51.188;16.374;2023-02-14T11:43:33;102269.36;;;8.14;73.16
37304;BME280;23188;51.188;16.374;2023-02-14T11:47:36;102262.65;;;8.19;73.77
37304;BME280;23188;51.188;16.374;2023-02-14T11:51:43;102262.88;;;8.22;72.68
37304;BME280;23188;51.188;16.374;2023-02-14T11:55:53;102257.42;;;8.21;72.03
37304;BME280;23188;51.188;16.374;2023-02-14T11:59:58;102253.63;;;8.23;72.20
37304;BME280;23188;51.188;16.374;2023-02-14T12:04:05;102257.55;;;8.31;73.00
37304;BME280;23188;51.188;16.374;2023-02-14T12:08:08;102247.76;;;8.37;72.30
37304;BME280;23188;51.188;16.374;2023-02-14T12:12:21;102247.73;;;8.25;70.27
37304;BME280;23188;51.188;16.374;2023-02-14T12:16:29;102247.39;;;8.29;70.47
37304;BME280;23188;51.188;16.374;2023-02-14T12:29:24;102243.83;;;8.69;70.05
37304;BME280;23188;51.188;16.374;2023-02-14T12:33:30;102238.24;;;8.67;69.33
37304;BME280;23188;51.188;16.374;2023-02-14T12:37:54;102239.77;;;8.47;69.02
37304;BME280;23188;51.188;16.374;2023-02-14T13:16:36;102216.00;;;8.14;70.16
37304;BME280;23188;51.188;16.374;2023-02-14T13:21:07;102218.70;;;8.08;70.85
37304;BME280;23188;51.188;16.374;2023-02-14T13:25:24;102214.13;;;8.12;71.10
37304;BME280;23188;51.188;16.374;2023-02-14T13:29:47;102211.94;;;8.27;70.74
37304;BME280;23188;51.188;16.374;2023-02-14T13:33:54;102209.03;;;8.42;70.28
37304;BME280;23188;51.188;16.374;2023-02-14T13:38:05;102211.95;;;8.49;70.18
37304;BME280;23188;51.188;16.374;2023-02-14T13:42:09;102207.58;;;8.56;70.52
37304;BME280;23188;51.188;16.374;2023-02-14T13:46:14;102211.98;;;8.43;69.83
37304;BME280;23188;51.188;16.374;2023-02-14T13:50:20;102209.09;;;8.32;71.48
37304;BME280;23188;51.188;16.374;2023-02-14T13:54:32;102207.90;;;8.22;72.26
37304;BME280;23188;51.188;16.374;2023-02-14T13:58:34;102202.83;;;8.12;70.95
37304;BME280;23188;51.188;16.374;2023-02-14T14:02:49;102204.84;;;8.06;71.27
37304;BME280;23188;51.188;16.374;2023-02-14T14:11:48;102204.31;;;7.88;71.62
37304;BME280;23188;51.188;16.374;2023-02-14T14:15:25;102204.63;;;7.80;71.69
37304;BME280;23188;51.188;16.374;2023-02-14T14:23:34;102205.66;;;7.76;72.25
37304;BME280;23188;51.188;16.374;2023-02-14T14:27:44;102205.08;;;7.73;72.23
37304;BME280;23188;51.188;16.374;2023-02-14T14:31:47;102202.18;;;7.70;71.38
37304;BME280;23188;51.188;16.374;2023-02-14T14:35:58;102196.61;;;7.72;72.01
37304;BME280;23188;51.188;16.374;2023-02-14T14:40:06;102193.02;;;7.74;71.59
37304;BME280;23188;51.188;16.374;2023-02-14T14:44:09;102191.77;;;7.74;70.64
37304;BME280;23188;51.188;16.374;2023-02-14T14:48:15;102189.90;;;7.72;70.68
37304;BME280;23188;51.188;16.374;2023-02-14T14:52:32;102190.09;;;7.81;71.48
37304;BME280;23188;51.188;16.374;2023-02-14T14:56:37;102184.96;;;7.91;71.02
37304;BME280;23188;51.188;16.374;2023-02-14T15:00:50;102182.85;;;7.99;70.78
37304;BME280;23188;51.188;16.374;2023-02-14T15:04:52;102179.55;;;8.06;71.08
37304;BME280;23188;51.188;16.374;2023-02-14T15:08:54;102175.26;;;8.03;69.68
37304;BME280;23188;51.188;16.374;2023-02-14T15:12:58;102173.04;;;7.97;69.14
37304;BME280;23188;51.188;16.374;2023-02-14T15:17:20;102168.43;;;7.97;70.58
37304;BME280;23188;51.188;16.374;2023-02-14T15:21:23;102165.91;;;7.94;71.58
37304;BME280;23188;51.188;16.374;2023-02-14T15:25:36;102167.73;;;7.93;72.35
37304;BME280;23188;51.188;16.374;2023-02-14T15:29:38;102160.48;;;7.89;72.28
37304;BME280;23188;51.188;16.374;2023-02-14T15:33:40;102159.10;;;7.79;71.86
37304;BME280;23188;51.188;16.374;2023-02-14T15:37:45;102157.02;;;7.60;72.00
37304;BME280;23188;51.188;16.374;2023-02-14T15:41:52;102151.14;;;7.38;71.88
37304;BME280;23188;51.188;16.374;2023-02-14T15:50:31;102150.84;;;7.14;72.12
37304;BME280;23188;51.188;16.374;2023-02-14T15:54:37;102144.13;;;7.09;72.86
37304;BME280;23188;51.188;16.374;2023-02-14T15:58:40;102151.80;;;7.06;72.17
37304;BME280;23188;51.188;16.374;2023-02-14T16:02:50;102146.60;;;7.04;72.28
37304;BME280;23188;51.188;16.374;2023-02-14T16:07:09;102143.27;;;7.13;71.86
37304;BME280;23188;51.188;16.374;2023-02-14T16:11:36;102140.36;;;7.24;72.05
37304;BME280;23188;51.188;16.374;2023-02-14T16:16:12;102136.79;;;7.31;72.55
37304;BME280;23188;51.188;16.374;2023-02-14T16:24:36;102138.70;;;7.12;73.10
37304;BME280;23188;51.188;16.374;2023-02-14T16:28:39;102131.64;;;7.03;73.25
37304;BME280;23188;51.188;16.374;2023-02-14T16:32:48;102134.13;;;7.02;73.89
37304;BME280;23188;51.188;16.374;2023-02-14T16:36:51;102129.20;;;6.97;73.63
37304;BME280;23188;51.188;16.374;2023-02-14T16:40:53;102139.14;;;6.91;73.56
37304;BME280;23188;51.188;16.374;2023-02-14T16:44:56;102142.70;;;6.70;75.23
37304;BME280;23188;51.188;16.374;2023-02-14T16:48:58;102135.30;;;6.60;76.09
37304;BME280;23188;51.188;16.374;2023-02-14T16:53:00;102146.07;;;6.44;76.70
37304;BME280;23188;51.188;16.374;2023-02-14T16:57:36;102149.02;;;6.30;75.66
37304;BME280;23188;51.188;16.374;2023-02-14T17:16:16;102144.71;;;6.42;74.98
37304;BME280;23188;51.188;16.374;2023-02-14T17:20:20;102141.77;;;6.46;75.14
37304;BME280;23188;51.188;16.374;2023-02-14T17:24:26;102148.33;;;6.40;75.41
37304;BME280;23188;51.188;16.374;2023-02-14T17:28:31;102138.38;;;6.32;74.70
37304;BME280;23188;51.188;16.374;2023-02-14T17:32:34;102142.39;;;6.18;75.87
37304;BME280;23188;51.188;16.374;2023-02-14T17:36:37;102150.98;;;6.13;76.27
37304;BME280;23188;51.188;16.374;2023-02-14T17:40:39;102146.56;;;6.13;76.33
37304;BME280;23188;51.188;16.374;2023-02-14T17:44:41;102152.17;;;6.09;76.44
37304;BME280;23188;51.188;16.374;2023-02-14T17:48:44;102149.48;;;6.10;76.58
37304;BME280;23188;51.188;16.374;2023-02-14T17:52:46;102154.05;;;6.22;77.27
37304;BME280;23188;51.188;16.374;2023-02-14T17:56:49;102150.70;;;6.32;77.09
37304;BME280;23188;51.188;16.374;2023-02-14T18:00:51;102145.67;;;6.25;76.51
37304;BME280;23188;51.188;16.374;2023-02-14T18:04:53;102145.09;;;6.10;77.77
37304;BME280;23188;51.188;16.374;2023-02-14T18:08:55;102141.68;;;6.01;77.92
37304;BME280;23188;51.188;16.374;2023-02-14T18:12:58;102137.70;;;5.99;76.80
37304;BME280;23188;51.188;16.374;2023-02-14T18:17:00;102133.55;;;6.08;75.60
37304;BME280;23188;51.188;16.374;2023-02-14T18:21:04;102133.22;;;6.18;75.03
37304;BME280;23188;51.188;16.374;2023-02-14T18:25:06;102133.95;;;6.06;76.33
37304;BME280;23188;51.188;16.374;2023-02-14T18:29:08;102128.02;;;6.04;76.82
37304;BME280;23188;51.188;16.374;2023-02-14T18:33:12;102124.46;;;6.05;77.33
37304;BME280;23188;51.188;16.374;2023-02-14T18:37:14;102125.24;;;6.08;77.08
37304;BME280;23188;51.188;16.374;2023-02-14T18:41:18;102121.94;;;6.18;77.06
37304;BME280;23188;51.188;16.374;2023-02-14T18:45:20;102118.24;;;6.28;77.06
37304;BME280;23188;51.188;16.374;2023-02-14T18:54:26;102112.48;;;6.17;77.01
37304;BME280;23188;51.188;16.374;2023-02-14T19:03:48;102102.38;;;6.23;77.18
37304;BME280;23188;51.188;16.374;2023-02-14T19:08:16;102100.83;;;6.27;77.50
37304;BME280;23188;51.188;16.374;2023-02-14T19:36:07;102085.77;;;6.04;78.85
37304;BME280;23188;51.188;16.374;2023-02-14T19:52:14;102077.02;;;5.85;80.32
37304;BME280;23188;51.188;16.374;2023-02-14T19:56:34;102075.77;;;5.80;81.10
37304;BME280;23188;51.188;16.374;2023-02-14T20:00:37;102074.09;;;5.78;81.53
37304;BME280;23188;51.188;16.374;2023-02-14T20:13:38;102073.34;;;5.74;80.97
37304;BME280;23188;51.188;16.374;2023-02-14T20:18:17;102071.57;;;5.64;81.72
37304;BME280;23188;51.188;16.374;2023-02-14T20:22:19;102065.48;;;5.55;81.91
37304;BME280;23188;51.188;16.374;2023-02-14T20:26:26;102053.66;;;5.51;82.01
37304;BME280;23188;51.188;16.374;2023-02-14T20:30:29;102050.77;;;5.47;81.34
37304;BME280;23188;51.188;16.374;2023-02-14T20:34:35;102051.82;;;5.42;81.05
37304;BME280;23188;51.188;16.374;2023-02-14T20:38:37;102051.30;;;5.36;80.87
37304;BME280;23188;51.188;16.374;2023-02-14T20:42:40;102050.61;;;5.31;81.18
37304;BME280;23188;51.188;16.374;2023-02-14T20:46:43;102051.86;;;5.23;81.18
37304;BME280;23188;51.188;16.374;2023-02-14T21:00:12;102049.36;;;4.96;81.83
37304;BME280;23188;51.188;16.374;2023-02-14T21:04:29;102032.38;;;4.82;81.85
37304;BME280;23188;51.188;16.374;2023-02-14T21:08:51;102030.61;;;4.64;82.26
37304;BME280;23188;51.188;16.374;2023-02-14T21:12:56;102027.98;;;4.39;83.45
37304;BME280;23188;51.188;16.374;2023-02-14T21:17:00;102024.40;;;4.15;83.71
37304;BME280;23188;51.188;16.374;2023-02-14T21:21:11;102024.92;;;3.95;84.58
37304;BME280;23188;51.188;16.374;2023-02-14T21:25:17;102027.14;;;3.62;86.14
37304;BME280;23188;51.188;16.374;2023-02-14T21:29:23;102030.66;;;3.47;86.24
37304;BME280;23188;51.188;16.374;2023-02-14T21:33:27;102027.16;;;3.48;86.15
37304;BME280;23188;51.188;16.374;2023-02-14T21:38:12;102024.31;;;3.42;86.47
37304;BME280;23188;51.188;16.374;2023-02-14T21:42:19;102020.39;;;3.22;87.36
37304;BME280;23188;51.188;16.374;2023-02-14T21:46:27;102009.23;;;2.95;89.48
37304;BME280;23188;51.188;16.374;2023-02-14T21:50:31;102005.73;;;2.71;91.18
37304;BME280;23188;51.188;16.374;2023-02-14T21:54:35;102001.66;;;2.47;92.98
37304;BME280;23188;51.188;16.374;2023-02-14T21:58:41;102002.22;;;2.36;93.90
37304;BME280;23188;51.188;16.374;2023-02-14T22:16:44;101992.46;;;1.88;96.92
37304;BME280;23188;51.188;16.374;2023-02-14T22:21:26;101988.56;;;1.81;97.40
37304;BME280;23188;51.188;16.374;2023-02-14T22:25:31;101985.16;;;1.74;97.80
37304;BME280;23188;51.188;16.374;2023-02-14T22:29:34;101983.89;;;1.68;98.67
37304;BME280;23188;51.188;16.374;2023-02-14T22:52:37;101959.85;;;1.41;99.92
37304;BME280;23188;51.188;16.374;2023-02-14T22:57:16;101952.55;;;1.38;99.97
37304;BME280;23188;51.188;16.374;2023-02-14T23:01:22;101952.83;;;1.32;100.00
37304;BME280;23188;51.188;16.374;2023-02-14T23:05:32;101946.27;;;1.27;100.00
37304;BME280;23188;51.188;16.374;2023-02-14T23:09:34;101945.67;;;1.20;100.00
37304;BME280;23188;51.188;16.374;2023-02-14T23:13:39;101937.17;;;1.15;100.00
37304;BME280;23188;51.188;16.374;2023-02-14T23:17:59;101939.65;;;1.03;100.00
37304;BME280;23188;51.188;16.374;2023-02-14T23:22:25;101940.31;;;1.06;100.00
37304;BME280;23188;51.188;16.374;2023-02-14T23:26:27;101935.33;;;1.11;100.00
37304;BME280;23188;51.188;16.374;2023-02-14T23:30:28;101938.88;;;1.19;100.00
37304;BME280;23188;51.188;16.374;2023-02-14T23:34:32;101934.27;;;1.33;100.00
37304;BME280;23188;51.188;16.374;2023-02-14T23:38:33;101931.70;;;1.41;99.79
37304;BME280;23188;51.188;16.374;2023-02-14T23:42:42;101929.77;;;1.42;99.48
37304;BME280;23188;51.188;16.374;2023-02-14T23:46:45;101927.02;;;1.39;99.37
37304;BME280;23188;51.188;16.374;2023-02-14T23:50:47;101926.34;;;1.27;99.90
37304;BME280;23188;51.188;16.374;2023-02-14T23:55:17;101920.54;;;1.18;99.94
37304;BME280;23188;51.188;16.374;2023-02-14T23:59:20;101918.59;;;1.09;100.00
